sensor_id;sensor_type;location;lat;lon;timestamp;pressure;altitude;pressure_sealevel;temperature;humidity
23303;BME280;11820;48.738;9.092;2023-02-13T00:01:27;98143.72;;;3.74;nan
23303;BME280;11820;48.738;9.092;2023-02-13T00:03:52;98149.06;;;3.71;nan
23303;BME280;11820;48.738;9.092;2023-02-13T00:06:17;98143.19;;;3.69;nan
23303;BME280;11820;48.738;9.092;2023-02-13T00:08:43;98138.94;;;3.57;nan
23303;BME280;11820;48.738;9.092;2023-02-13T00:11:08;98146.09;;;3.52;nan
23303;BME280;11820;48.738;9.092;2023-02-13T00:13:34;98142.63;;;3.66;nan
23303;BME280;11820;48.738;9.092;2023-02-13T00:16:02;98147.25;;;3.48;nan
23303;BME280;11820;48.738;9.092;2023-02-13T00:18:31;98146.13;;;3.27;nan
23303;BME280;11820;48.738;9.092;2023-02-13T00:20:58;98141.81;;;3.15;nan
23303;BME280;11820;48.738;9.092;2023-02-13T00:23:24;98144.47;;;3.26;nan
23303;BME280;11820;48.738;9.092;2023-02-13T00:25:49;98148.38;;;3.32;nan
23303;BME280;11820;48.738;9.092;2023-02-13T00:28:14;98146.13;;;3.27;nan
23303;BME280;11820;48.738;9.092;2023-02-13T00:30:40;98148.03;;;3.36;nan
23303;BME280;11820;48.738;9.092;2023-02-13T00:33:05;98142.22;;;3.47;nan
23303;BME280;11820;48.738;9.092;2023-02-13T00:35:30;98138.25;;;3.43;nan
23303;BME280;11820;48.738;9.092;2023-02-13T00:37:56;98145.00;;;3.31;nan
23303;BME280;11820;48.738;9.092;2023-02-13T00:40:21;98145.19;;;3.41;nan
23303;BME280;11820;48.738;9.092;2023-02-13T00:42:46;98144.28;;;3.29;nan
23303;BME280;11820;48.738;9.092;2023-02-13T00:45:12;98145.06;;;3.42;nan
23303;BME280;11820;48.738;9.092;2023-02-13T00:47:37;98138.00;;;3.58;nan
23303;BME280;11820;48.738;9.092;2023-02-13T00:50:02;98132.97;;;3.69;nan
23303;BME280;11820;48.738;9.092;2023-02-13T00:52:28;98138.31;;;3.66;nan
23303;BME280;11820;48.738;9.092;2023-02-13T00:54:53;98145.88;;;3.68;nan
23303;BME280;11820;48.738;9.092;2023-02-13T00:57:18;98134.72;;;3.69;nan
23303;BME280;11820;48.738;9.092;2023-02-13T00:59:44;98137.91;;;3.72;nan
23303;BME280;11820;48.738;9.092;2023-02-13T01:02:09;98143.41;;;3.66;nan
23303;BME280;11820;48.738;9.092;2023-02-13T01:04:34;98145.50;;;3.36;nan
23303;BME280;11820;48.738;9.092;2023-02-13T01:07:00;98135.38;;;3.22;nan
23303;BME280;11820;48.738;9.092;2023-02-13T01:09:25;98133.00;;;3.44;nan
23303;BME280;11820;48.738;9.092;2023-02-13T01:11:50;98139.03;;;3.43;nan
23303;BME280;11820;48.738;9.092;2023-02-13T01:14:16;98140.38;;;3.12;nan
23303;BME280;11820;48.738;9.092;2023-02-13T01:16:41;98137.81;;;3.12;nan
23303;BME280;11820;48.738;9.092;2023-02-13T01:19:06;98133.53;;;3.12;nan
23303;BME280;11820;48.738;9.092;2023-02-13T01:21:32;98141.78;;;3.03;nan
23303;BME280;11820;48.738;9.092;2023-02-13T01:23:57;98134.13;;;3.03;nan
23303;BME280;11820;48.738;9.092;2023-02-13T01:26:23;98132.63;;;3.01;nan
23303;BME280;11820;48.738;9.092;2023-02-13T01:28:55;98137.63;;;3.14;nan
23303;BME280;11820;48.738;9.092;2023-02-13T01:31:22;98135.25;;;3.12;nan
23303;BME280;11820;48.738;9.092;2023-02-13T01:33:48;98130.16;;;2.99;nan
23303;BME280;11820;48.738;9.092;2023-02-13T01:36:13;98130.97;;;3.00;nan
23303;BME280;11820;48.738;9.092;2023-02-13T01:38:39;98122.50;;;3.12;nan
23303;BME280;11820;48.738;9.092;2023-02-13T01:41:05;98118.94;;;3.26;nan
23303;BME280;11820;48.738;9.092;2023-02-13T01:43:46;98122.28;;;3.39;nan
23303;BME280;11820;48.738;9.092;2023-02-13T01:46:17;98107.78;;;3.40;nan
23303;BME280;11820;48.738;9.092;2023-02-13T01:48:43;98112.25;;;3.49;nan
23303;BME280;11820;48.738;9.092;2023-02-13T01:51:15;98115.72;;;3.48;nan
23303;BME280;11820;48.738;9.092;2023-02-13T01:53:52;98119.09;;;3.61;nan
23303;BME280;11820;48.738;9.092;2023-02-13T01:56:24;98118.25;;;3.60;nan
23303;BME280;11820;48.738;9.092;2023-02-13T01:58:55;98113.56;;;3.67;nan
23303;BME280;11820;48.738;9.092;2023-02-13T02:01:23;98108.84;;;3.73;nan
23303;BME280;11820;48.738;9.092;2023-02-13T02:03:56;98118.84;;;3.76;nan
23303;BME280;11820;48.738;9.092;2023-02-13T02:06:27;98122.25;;;3.52;nan
23303;BME280;11820;48.738;9.092;2023-02-13T02:08:56;98122.19;;;3.04;nan
23303;BME280;11820;48.738;9.092;2023-02-13T02:11:49;98121.66;;;2.74;nan
23303;BME280;11820;48.738;9.092;2023-02-13T02:14:17;98120.72;;;2.75;nan
23303;BME280;11820;48.738;9.092;2023-02-13T02:16:42;98126.69;;;2.49;nan
23303;BME280;11820;48.738;9.092;2023-02-13T02:19:15;98135.78;;;2.53;nan
23303;BME280;11820;48.738;9.092;2023-02-13T02:27:23;98117.25;;;2.63;nan
23303;BME280;11820;48.738;9.092;2023-02-13T02:32:33;98117.66;;;2.31;nan
23303;BME280;11820;48.738;9.092;2023-02-13T02:40:53;98128.91;;;2.41;nan
23303;BME280;11820;48.738;9.092;2023-02-13T02:43:45;98120.16;;;2.45;nan
23303;BME280;11820;48.738;9.092;2023-02-13T02:51:58;98120.88;;;2.47;nan
23303;BME280;11820;48.738;9.092;2023-02-13T02:54:44;98114.06;;;2.60;nan
23303;BME280;11820;48.738;9.092;2023-02-13T02:57:39;98111.50;;;2.60;nan
23303;BME280;11820;48.738;9.092;2023-02-13T03:00:25;98118.69;;;2.80;nan
23303;BME280;11820;48.738;9.092;2023-02-13T03:03:17;98115.53;;;2.89;nan
23303;BME280;11820;48.738;9.092;2023-02-13T03:06:03;98118.91;;;2.77;nan
23303;BME280;11820;48.738;9.092;2023-02-13T03:08:40;98123.97;;;2.64;nan
23303;BME280;11820;48.738;9.092;2023-02-13T03:11:25;98123.47;;;2.59;nan
23303;BME280;11820;48.738;9.092;2023-02-13T03:14:10;98120.16;;;2.45;nan
23303;BME280;11820;48.738;9.092;2023-02-13T03:16:37;98125.63;;;2.65;nan
23303;BME280;11820;48.738;9.092;2023-02-13T03:19:33;98129.50;;;2.58;nan
23303;BME280;11820;48.738;9.092;2023-02-13T03:22:39;98130.50;;;2.56;nan
23303;BME280;11820;48.738;9.092;2023-02-13T03:25:29;98121.72;;;2.21;nan
23303;BME280;11820;48.738;9.092;2023-02-13T03:28:09;98132.00;;;2.19;nan
23303;BME280;11820;48.738;9.092;2023-02-13T03:31:08;98127.53;;;2.23;nan
23303;BME280;11820;48.738;9.092;2023-02-13T03:34:21;98132.44;;;2.26;nan
23303;BME280;11820;48.738;9.092;2023-02-13T03:42:22;98124.47;;;2.57;nan
23303;BME280;11820;48.738;9.092;2023-02-13T03:44:55;98126.56;;;2.77;nan
23303;BME280;11820;48.738;9.092;2023-02-13T03:47:41;98126.06;;;2.97;nan
23303;BME280;11820;48.738;9.092;2023-02-13T03:50:09;98126.88;;;3.10;nan
23303;BME280;11820;48.738;9.092;2023-02-13T03:55:16;98136.97;;;2.74;nan
23303;BME280;11820;48.738;9.092;2023-02-13T03:58:10;98140.59;;;2.45;nan
23303;BME280;11820;48.738;9.092;2023-02-13T04:00:57;98137.31;;;2.43;nan
23303;BME280;11820;48.738;9.092;2023-02-13T04:03:30;98137.63;;;2.24;nan
23303;BME280;11820;48.738;9.092;2023-02-13T04:06:10;98134.75;;;2.43;nan
23303;BME280;11820;48.738;9.092;2023-02-13T04:08:37;98140.09;;;2.65;nan
23303;BME280;11820;48.738;9.092;2023-02-13T04:11:20;98141.16;;;2.75;nan
23303;BME280;11820;48.738;9.092;2023-02-13T04:13:57;98146.84;;;2.66;nan
23303;BME280;11820;48.738;9.092;2023-02-13T04:16:41;98157.16;;;2.38;nan
23303;BME280;11820;48.738;9.092;2023-02-13T04:19:09;98149.59;;;2.24;nan
23303;BME280;11820;48.738;9.092;2023-02-13T04:21:37;98156.88;;;2.16;nan
23303;BME280;11820;48.738;9.092;2023-02-13T04:24:03;98153.97;;;2.22;nan
23303;BME280;11820;48.738;9.092;2023-02-13T04:26:34;98156.34;;;2.11;nan
23303;BME280;11820;48.738;9.092;2023-02-13T04:28:59;98161.06;;;2.17;nan
23303;BME280;11820;48.738;9.092;2023-02-13T04:31:25;98158.34;;;2.20;nan
23303;BME280;11820;48.738;9.092;2023-02-13T04:33:50;98168.56;;;2.06;nan
23303;BME280;11820;48.738;9.092;2023-02-13T04:36:15;98157.72;;;2.02;nan
23303;BME280;11820;48.738;9.092;2023-02-13T04:38:41;98155.47;;;1.98;nan
23303;BME280;11820;48.738;9.092;2023-02-13T04:41:07;98157.72;;;2.02;nan
23303;BME280;11820;48.738;9.092;2023-02-13T04:43:32;98160.47;;;1.99;nan
23303;BME280;11820;48.738;9.092;2023-02-13T04:45:57;98155.28;;;2.01;nan
23303;BME280;11820;48.738;9.092;2023-02-13T04:48:23;98156.94;;;2.02;nan
23303;BME280;11820;48.738;9.092;2023-02-13T04:50:48;98154.72;;;2.10;nan
23303;BME280;11820;48.738;9.092;2023-02-13T04:53:13;98152.53;;;2.18;nan
23303;BME280;11820;48.738;9.092;2023-02-13T04:55:39;98151.03;;;2.28;nan
23303;BME280;11820;48.738;9.092;2023-02-13T04:58:04;98156.34;;;2.11;nan
23303;BME280;11820;48.738;9.092;2023-02-13T05:00:29;98164.56;;;2.02;nan
23303;BME280;11820;48.738;9.092;2023-02-13T05:03:03;98169.34;;;1.94;nan
23303;BME280;11820;48.738;9.092;2023-02-13T05:05:28;98169.59;;;1.75;nan
23303;BME280;11820;48.738;9.092;2023-02-13T05:07:54;98169.34;;;1.80;nan
23303;BME280;11820;48.738;9.092;2023-02-13T05:10:19;98166.59;;;1.83;nan
23303;BME280;11820;48.738;9.092;2023-02-13T05:12:44;98165.91;;;1.67;nan
23303;BME280;11820;48.738;9.092;2023-02-13T05:15:09;98164.44;;;1.77;nan
23303;BME280;11820;48.738;9.092;2023-02-13T05:17:35;98164.63;;;1.74;nan
23303;BME280;11820;48.738;9.092;2023-02-13T05:20:00;98156.31;;;1.84;nan
23303;BME280;11820;48.738;9.092;2023-02-13T05:22:25;98155.69;;;1.81;nan
23303;BME280;11820;48.738;9.092;2023-02-13T05:25:09;98165.34;;;1.62;nan
23303;BME280;11820;48.738;9.092;2023-02-13T05:27:35;98164.25;;;1.80;nan
23303;BME280;11820;48.738;9.092;2023-02-13T05:30:00;98157.88;;;1.73;nan
23303;BME280;11820;48.738;9.092;2023-02-13T05:32:25;98156.94;;;1.88;nan
23303;BME280;11820;48.738;9.092;2023-02-13T05:34:50;98156.19;;;2.00;nan
23303;BME280;11820;48.738;9.092;2023-02-13T05:37:16;98164.75;;;1.99;nan
23303;BME280;11820;48.738;9.092;2023-02-13T05:39:41;98166.22;;;2.03;nan
23303;BME280;11820;48.738;9.092;2023-02-13T05:42:06;98163.75;;;2.01;nan
23303;BME280;11820;48.738;9.092;2023-02-13T05:44:33;98161.69;;;1.94;nan
23303;BME280;11820;48.738;9.092;2023-02-13T05:46:58;98166.41;;;1.86;nan
23303;BME280;11820;48.738;9.092;2023-02-13T05:49:23;98162.78;;;1.76;nan
23303;BME280;11820;48.738;9.092;2023-02-13T05:51:48;98158.88;;;1.70;nan
23303;BME280;11820;48.738;9.092;2023-02-13T05:54:16;98161.16;;;1.61;nan
23303;BME280;11820;48.738;9.092;2023-02-13T05:56:42;98156.69;;;1.78;nan
23303;BME280;11820;48.738;9.092;2023-02-13T05:59:07;98158.34;;;1.79;nan
23303;BME280;11820;48.738;9.092;2023-02-13T06:01:33;98159.41;;;1.89;nan
23303;BME280;11820;48.738;9.092;2023-02-13T06:03:58;98153.19;;;2.07;nan
23303;BME280;11820;48.738;9.092;2023-02-13T06:06:26;98161.97;;;2.16;nan
23303;BME280;11820;48.738;9.092;2023-02-13T06:08:52;98151.50;;;2.20;nan
23303;BME280;11820;48.738;9.092;2023-02-13T06:11:18;98148.56;;;2.26;nan
23303;BME280;11820;48.738;9.092;2023-02-13T06:13:43;98159.47;;;2.28;nan
23303;BME280;11820;48.738;9.092;2023-02-13T06:16:10;98152.78;;;2.40;nan
23303;BME280;11820;48.738;9.092;2023-02-13T06:18:36;98153.44;;;2.43;nan
23303;BME280;11820;48.738;9.092;2023-02-13T06:21:01;98158.59;;;2.42;nan
23303;BME280;11820;48.738;9.092;2023-02-13T06:23:28;98151.88;;;2.41;nan
23303;BME280;11820;48.738;9.092;2023-02-13T06:25:53;98153.94;;;2.48;nan
23303;BME280;11820;48.738;9.092;2023-02-13T06:28:18;98156.41;;;2.50;nan
23303;BME280;11820;48.738;9.092;2023-02-13T06:30:44;98156.59;;;2.47;nan
23303;BME280;11820;48.738;9.092;2023-02-13T06:33:09;98155.25;;;2.41;nan
23303;BME280;11820;48.738;9.092;2023-02-13T06:35:34;98159.88;;;2.49;nan
23303;BME280;11820;48.738;9.092;2023-02-13T06:38:00;98156.84;;;2.56;nan
23303;BME280;11820;48.738;9.092;2023-02-13T06:40:25;98168.91;;;2.67;nan
23303;BME280;11820;48.738;9.092;2023-02-13T06:42:50;98162.00;;;2.69;nan
23303;BME280;11820;48.738;9.092;2023-02-13T06:45:16;98152.78;;;2.66;nan
23303;BME280;11820;48.738;9.092;2023-02-13T06:47:46;98146.06;;;2.78;nan
23303;BME280;11820;48.738;9.092;2023-02-13T06:50:13;98154.88;;;2.86;nan
23303;BME280;11820;48.738;9.092;2023-02-13T06:52:44;98162.22;;;2.91;nan
23303;BME280;11820;48.738;9.092;2023-02-13T06:55:10;98159.28;;;2.97;nan
23303;BME280;11820;48.738;9.092;2023-02-13T06:57:35;98161.84;;;2.97;nan
23303;BME280;11820;48.738;9.092;2023-02-13T07:00:01;98161.63;;;3.00;nan
23303;BME280;11820;48.738;9.092;2023-02-13T07:02:30;98162.44;;;3.00;nan
23303;BME280;11820;48.738;9.092;2023-02-13T07:04:55;98165.81;;;3.01;nan
23303;BME280;11820;48.738;9.092;2023-02-13T07:07:21;98169.81;;;3.05;nan
23303;BME280;11820;48.738;9.092;2023-02-13T07:09:46;98170.31;;;3.10;nan
23303;BME280;11820;48.738;9.092;2023-02-13T07:12:11;98165.84;;;3.13;nan
23303;BME280;11820;48.738;9.092;2023-02-13T07:14:37;98166.75;;;3.12;nan
23303;BME280;11820;48.738;9.092;2023-02-13T07:17:02;98172.47;;;3.15;nan
23303;BME280;11820;48.738;9.092;2023-02-13T07:19:27;98170.63;;;3.17;nan
23303;BME280;11820;48.738;9.092;2023-02-13T07:21:53;98172.25;;;3.18;nan
23303;BME280;11820;48.738;9.092;2023-02-13T07:24:18;98174.22;;;3.27;nan
23303;BME280;11820;48.738;9.092;2023-02-13T07:26:43;98174.03;;;3.30;nan
23303;BME280;11820;48.738;9.092;2023-02-13T07:29:09;98179.66;;;3.35;nan
23303;BME280;11820;48.738;9.092;2023-02-13T07:31:34;98185.25;;;3.40;nan
23303;BME280;11820;48.738;9.092;2023-02-13T07:34:00;98179.44;;;3.38;nan
23303;BME280;11820;48.738;9.092;2023-02-13T07:36:26;98181.69;;;3.43;nan
23303;BME280;11820;48.738;9.092;2023-02-13T07:38:51;98178.84;;;3.47;nan
23303;BME280;11820;48.738;9.092;2023-02-13T07:41:16;98176.66;;;3.54;nan
23303;BME280;11820;48.738;9.092;2023-02-13T07:43:42;98178.00;;;3.59;nan
23303;BME280;11820;48.738;9.092;2023-02-13T07:46:08;98185.47;;;3.62;nan
23303;BME280;11820;48.738;9.092;2023-02-13T07:48:33;98185.78;;;3.70;nan
23303;BME280;11820;48.738;9.092;2023-02-13T07:51:01;98185.56;;;3.73;nan
23303;BME280;11820;48.738;9.092;2023-02-13T07:53:27;98179.81;;;3.82;nan
23303;BME280;11820;48.738;9.092;2023-02-13T07:55:52;98189.84;;;3.85;nan
23303;BME280;11820;48.738;9.092;2023-02-13T07:58:17;98182.16;;;3.85;nan
23303;BME280;11820;48.738;9.092;2023-02-13T08:00:43;98172.03;;;3.96;nan
23303;BME280;11820;48.738;9.092;2023-02-13T08:03:08;98181.84;;;4.02;nan
23303;BME280;11820;48.738;9.092;2023-02-13T08:05:34;98180.69;;;4.06;nan
23303;BME280;11820;48.738;9.092;2023-02-13T08:08:00;98174.00;;;4.16;nan
23303;BME280;11820;48.738;9.092;2023-02-13T08:10:25;98173.78;;;4.19;nan
23303;BME280;11820;48.738;9.092;2023-02-13T08:13:10;98180.13;;;4.26;nan
23303;BME280;11820;48.738;9.092;2023-02-13T08:15:36;98180.72;;;4.30;nan
23303;BME280;11820;48.738;9.092;2023-02-13T08:18:02;98173.34;;;4.38;nan
23303;BME280;11820;48.738;9.092;2023-02-13T08:20:27;98171.84;;;4.46;nan
23303;BME280;11820;48.738;9.092;2023-02-13T08:22:53;98174.25;;;4.37;nan
23303;BME280;11820;48.738;9.092;2023-02-13T08:25:18;98173.00;;;4.42;nan
23303;BME280;11820;48.738;9.092;2023-02-13T08:27:44;98175.72;;;4.52;nan
23303;BME280;11820;48.738;9.092;2023-02-13T08:30:11;98178.66;;;4.58;nan
23303;BME280;11820;48.738;9.092;2023-02-13T08:32:37;98170.53;;;4.64;nan
23303;BME280;11820;48.738;9.092;2023-02-13T08:35:02;98171.03;;;4.69;nan
23303;BME280;11820;48.738;9.092;2023-02-13T08:37:27;98176.50;;;4.65;nan
23303;BME280;11820;48.738;9.092;2023-02-13T08:39:53;98167.22;;;4.74;nan
23303;BME280;11820;48.738;9.092;2023-02-13T08:42:18;98159.44;;;4.87;nan
23303;BME280;11820;48.738;9.092;2023-02-13T08:44:43;98162.00;;;4.87;nan
23303;BME280;11820;48.738;9.092;2023-02-13T08:47:09;98156.34;;;4.94;nan
23303;BME280;11820;48.738;9.092;2023-02-13T08:49:34;98159.00;;;4.93;nan
23303;BME280;11820;48.738;9.092;2023-02-13T08:52:01;98153.91;;;5.04;nan
23303;BME280;11820;48.738;9.092;2023-02-13T08:54:27;98160.22;;;5.11;nan
23303;BME280;11820;48.738;9.092;2023-02-13T08:56:53;98161.56;;;4.93;nan
23303;BME280;11820;48.738;9.092;2023-02-13T08:59:19;98157.97;;;5.06;nan
23303;BME280;11820;48.738;9.092;2023-02-13T09:01:44;98166.06;;;5.13;nan
23303;BME280;11820;48.738;9.092;2023-02-13T09:04:10;98154.06;;;5.35;nan
23303;BME280;11820;48.738;9.092;2023-02-13T09:06:35;98158.78;;;5.41;nan
23303;BME280;11820;48.738;9.092;2023-02-13T09:09:00;98164.78;;;5.29;nan
23303;BME280;11820;48.738;9.092;2023-02-13T09:11:26;98159.56;;;5.31;nan
23303;BME280;11820;48.738;9.092;2023-02-13T09:13:52;98162.38;;;5.28;nan
23303;BME280;11820;48.738;9.092;2023-02-13T09:16:18;98159.47;;;5.43;nan
23303;BME280;11820;48.738;9.092;2023-02-13T09:18:45;98165.16;;;5.47;nan
23303;BME280;11820;48.738;9.092;2023-02-13T09:21:11;98158.91;;;5.51;nan
23303;BME280;11820;48.738;9.092;2023-02-13T09:23:38;98160.75;;;5.71;nan
23303;BME280;11820;48.738;9.092;2023-02-13T09:26:06;98160.31;;;5.77;nan
23303;BME280;11820;48.738;9.092;2023-02-13T09:28:32;98166.03;;;5.91;nan
23303;BME280;11820;48.738;9.092;2023-02-13T09:30:58;98164.38;;;6.01;nan
23303;BME280;11820;48.738;9.092;2023-02-13T09:33:25;98159.13;;;6.14;nan
23303;BME280;11820;48.738;9.092;2023-02-13T09:35:51;98162.72;;;6.22;nan
23303;BME280;11820;48.738;9.092;2023-02-13T09:38:16;98160.63;;;6.27;nan
23303;BME280;11820;48.738;9.092;2023-02-13T09:40:51;98157.31;;;6.36;nan
23303;BME280;11820;48.738;9.092;2023-02-13T09:43:27;98165.88;;;6.26;nan
23303;BME280;11820;48.738;9.092;2023-02-13T09:45:59;98164.81;;;6.39;nan
23303;BME280;11820;48.738;9.092;2023-02-13T09:48:32;98168.53;;;6.35;nan
23303;BME280;11820;48.738;9.092;2023-02-13T09:50:58;98165.25;;;6.44;nan
23303;BME280;11820;48.738;9.092;2023-02-13T09:53:26;98170.69;;;6.61;nan
23303;BME280;11820;48.738;9.092;2023-02-13T09:56:14;98160.06;;;6.86;nan
23303;BME280;11820;48.738;9.092;2023-02-13T09:58:48;98165.16;;;6.97;nan
23303;BME280;11820;48.738;9.092;2023-02-13T10:01:29;98172.75;;;6.99;nan
23303;BME280;11820;48.738;9.092;2023-02-13T10:06:42;98174.25;;;7.01;nan
23303;BME280;11820;48.738;9.092;2023-02-13T10:17:38;98168.22;;;7.83;nan
23303;BME280;11820;48.738;9.092;2023-02-13T10:20:21;98171.25;;;7.97;nan
23303;BME280;11820;48.738;9.092;2023-02-13T10:22:54;98175.81;;;8.14;nan
23303;BME280;11820;48.738;9.092;2023-02-13T10:25:30;98168.84;;;8.35;nan
23303;BME280;11820;48.738;9.092;2023-02-13T10:28:33;98171.94;;;8.38;nan
23303;BME280;11820;48.738;9.092;2023-02-13T10:31:08;98167.53;;;8.69;nan
23303;BME280;11820;48.738;9.092;2023-02-13T10:33:40;98160.03;;;9.04;nan
23303;BME280;11820;48.738;9.092;2023-02-13T10:38:43;98151.72;;;12.51;nan
23303;BME280;11820;48.738;9.092;2023-02-13T10:57:41;98122.34;;;19.43;nan
23303;BME280;11820;48.738;9.092;2023-02-13T11:02:49;98111.06;;;17.97;nan
23303;BME280;11820;48.738;9.092;2023-02-13T11:05:20;98119.88;;;17.89;nan
23303;BME280;11820;48.738;9.092;2023-02-13T11:07:47;98113.84;;;17.89;nan
23303;BME280;11820;48.738;9.092;2023-02-13T11:10:24;98108.09;;;17.72;nan
23303;BME280;11820;48.738;9.092;2023-02-13T11:12:50;98099.63;;;17.64;nan
23303;BME280;11820;48.738;9.092;2023-02-13T11:15:30;98098.84;;;18.10;nan
23303;BME280;11820;48.738;9.092;2023-02-13T11:18:08;98100.38;;;18.32;nan
23303;BME280;11820;48.738;9.092;2023-02-13T11:20:41;98098.91;;;19.09;nan
23303;BME280;11820;48.738;9.092;2023-02-13T11:23:33;98091.53;;;20.89;nan
23303;BME280;11820;48.738;9.092;2023-02-13T11:26:12;98076.19;;;23.42;nan
23303;BME280;11820;48.738;9.092;2023-02-13T11:33:45;98074.03;;;28.62;nan
23303;BME280;11820;48.738;9.092;2023-02-13T11:36:14;98061.59;;;29.62;nan
23303;BME280;11820;48.738;9.092;2023-02-13T11:38:40;98075.09;;;28.61;nan
23303;BME280;11820;48.738;9.092;2023-02-13T11:41:09;98068.75;;;29.77;nan
23303;BME280;11820;48.738;9.092;2023-02-13T11:43:49;98067.13;;;29.86;nan
23303;BME280;11820;48.738;9.092;2023-02-13T11:46:20;98070.13;;;31.24;nan
23303;BME280;11820;48.738;9.092;2023-02-13T11:49:00;98063.44;;;32.49;nan
23303;BME280;11820;48.738;9.092;2023-02-13T11:51:44;98067.38;;;31.91;nan
23303;BME280;11820;48.738;9.092;2023-02-13T11:54:41;98058.66;;;30.37;nan
23303;BME280;11820;48.738;9.092;2023-02-13T11:57:21;98069.84;;;26.95;nan
23303;BME280;11820;48.738;9.092;2023-02-13T11:59:48;98088.31;;;21.85;nan
23303;BME280;11820;48.738;9.092;2023-02-13T12:02:24;98090.50;;;20.59;nan
23303;BME280;11820;48.738;9.092;2023-02-13T12:05:13;98086.75;;;21.77;nan
23303;BME280;11820;48.738;9.092;2023-02-13T12:07:40;98087.78;;;21.52;nan
23303;BME280;11820;48.738;9.092;2023-02-13T12:12:44;98066.13;;;26.96;nan
23303;BME280;11820;48.738;9.092;2023-02-13T12:15:23;98069.59;;;23.68;nan
23303;BME280;11820;48.738;9.092;2023-02-13T12:18:01;98075.28;;;20.30;nan
23303;BME280;11820;48.738;9.092;2023-02-13T12:20:38;98092.00;;;18.56;nan
23303;BME280;11820;48.738;9.092;2023-02-13T12:23:24;98092.38;;;18.53;nan
23303;BME280;11820;48.738;9.092;2023-02-13T12:26:02;98092.78;;;18.56;nan
23303;BME280;11820;48.738;9.092;2023-02-13T12:31:33;98091.41;;;18.20;nan
23303;BME280;11820;48.738;9.092;2023-02-13T12:34:17;98097.19;;;17.35;nan
23303;BME280;11820;48.738;9.092;2023-02-13T12:37:01;98090.16;;;17.69;nan
23303;BME280;11820;48.738;9.092;2023-02-13T12:39:43;98094.91;;;17.87;nan
23303;BME280;11820;48.738;9.092;2023-02-13T12:55:59;98071.97;;;17.95;nan
23303;BME280;11820;48.738;9.092;2023-02-13T13:04:22;98077.59;;;17.24;nan
23303;BME280;11820;48.738;9.092;2023-02-13T13:09:54;98061.09;;;16.54;nan
23303;BME280;11820;48.738;9.092;2023-02-13T13:15:34;98070.84;;;16.31;nan
23303;BME280;11820;48.738;9.092;2023-02-13T13:23:17;98071.84;;;16.30;nan
23303;BME280;11820;48.738;9.092;2023-02-13T13:28:48;98059.56;;;16.87;nan
23303;BME280;11820;48.738;9.092;2023-02-13T13:31:15;98058.97;;;16.64;nan
23303;BME280;11820;48.738;9.092;2023-02-13T13:33:45;98054.78;;;16.49;nan
23303;BME280;11820;48.738;9.092;2023-02-13T13:42:08;98060.41;;;16.88;nan
23303;BME280;11820;48.738;9.092;2023-02-13T13:45:25;98051.97;;;16.71;nan
23303;BME280;11820;48.738;9.092;2023-02-13T13:47:59;98058.47;;;16.19;nan
23303;BME280;11820;48.738;9.092;2023-02-13T13:50:32;98061.16;;;16.26;nan
23303;BME280;11820;48.738;9.092;2023-02-13T13:53:12;98055.81;;;16.69;nan
23303;BME280;11820;48.738;9.092;2023-02-13T13:58:31;98047.88;;;16.41;nan
23303;BME280;11820;48.738;9.092;2023-02-13T14:01:18;98045.94;;;17.19;nan
23303;BME280;11820;48.738;9.092;2023-02-13T14:03:53;98062.25;;;16.73;nan
23303;BME280;11820;48.738;9.092;2023-02-13T14:06:24;98055.16;;;17.15;nan
23303;BME280;11820;48.738;9.092;2023-02-13T14:08:59;98059.25;;;15.99;nan
23303;BME280;11820;48.738;9.092;2023-02-13T14:11:37;98057.66;;;16.75;nan
23303;BME280;11820;48.738;9.092;2023-02-13T14:16:58;98062.56;;;16.63;nan
23303;BME280;11820;48.738;9.092;2023-02-13T14:19:29;98060.94;;;16.62;nan
23303;BME280;11820;48.738;9.092;2023-02-13T14:24:54;98060.34;;;16.81;nan
23303;BME280;11820;48.738;9.092;2023-02-13T14:27:27;98053.28;;;16.82;nan
23303;BME280;11820;48.738;9.092;2023-02-13T14:29:54;98057.09;;;16.79;nan
23303;BME280;11820;48.738;9.092;2023-02-13T14:32:32;98055.63;;;16.49;nan
23303;BME280;11820;48.738;9.092;2023-02-13T14:35:15;98055.72;;;16.83;nan
23303;BME280;11820;48.738;9.092;2023-02-13T14:37:49;98057.16;;;16.86;nan
23303;BME280;11820;48.738;9.092;2023-02-13T14:42:51;98058.59;;;16.67;nan
23303;BME280;11820;48.738;9.092;2023-02-13T14:45:28;98048.97;;;16.32;nan
23303;BME280;11820;48.738;9.092;2023-02-13T14:47:57;98054.38;;;15.96;nan
23303;BME280;11820;48.738;9.092;2023-02-13T14:53:15;98059.63;;;16.17;nan
23303;BME280;11820;48.738;9.092;2023-02-13T14:55:46;98055.66;;;16.21;nan
23303;BME280;11820;48.738;9.092;2023-02-13T15:00:51;98051.34;;;15.63;nan
23303;BME280;11820;48.738;9.092;2023-02-13T15:06:01;98056.47;;;15.71;nan
23303;BME280;11820;48.738;9.092;2023-02-13T15:08:35;98050.72;;;15.47;nan
23303;BME280;11820;48.738;9.092;2023-02-13T15:11:02;98041.91;;;15.62;nan
23303;BME280;11820;48.738;9.092;2023-02-13T15:13:32;98040.94;;;15.34;nan
23303;BME280;11820;48.738;9.092;2023-02-13T15:18:30;98045.25;;;15.05;nan
23303;BME280;11820;48.738;9.092;2023-02-13T15:20:58;98041.75;;;14.98;nan
23303;BME280;11820;48.738;9.092;2023-02-13T15:23:28;98048.19;;;14.65;nan
23303;BME280;11820;48.738;9.092;2023-02-13T15:26:06;98041.44;;;14.56;nan
23303;BME280;11820;48.738;9.092;2023-02-13T15:28:34;98036.91;;;13.97;nan
23303;BME280;11820;48.738;9.092;2023-02-13T15:31:06;98039.81;;;13.09;nan
23303;BME280;11820;48.738;9.092;2023-02-13T15:33:44;98043.84;;;12.48;nan
23303;BME280;11820;48.738;9.092;2023-02-13T15:36:19;98042.66;;;12.03;nan
23303;BME280;11820;48.738;9.092;2023-02-13T15:38:44;98042.78;;;11.85;nan
23303;BME280;11820;48.738;9.092;2023-02-13T15:41:17;98042.25;;;11.74;nan
23303;BME280;11820;48.738;9.092;2023-02-13T15:43:48;98051.00;;;11.47;nan
23303;BME280;11820;48.738;9.092;2023-02-13T15:46:21;98050.09;;;11.31;nan
23303;BME280;11820;48.738;9.092;2023-02-13T15:48:48;98057.72;;;11.07;nan
23303;BME280;11820;48.738;9.092;2023-02-13T15:51:21;98057.41;;;10.59;nan
23303;BME280;11820;48.738;9.092;2023-02-13T15:53:55;98059.97;;;10.59;nan
23303;BME280;11820;48.738;9.092;2023-02-13T15:56:21;98064.75;;;10.54;nan
23303;BME280;11820;48.738;9.092;2023-02-13T15:58:48;98062.94;;;10.47;nan
23303;BME280;11820;48.738;9.092;2023-02-13T16:01:14;98056.88;;;10.38;nan